sensor_id;sensor_type;location;lat;lon;timestamp;pressure;altitude;pressure_sealevel;temperature;humidity
51195;BME280;37259;49.972;19.850;2022-07-06T00:00:21;98630;;;17.4;100
51195;BME280;37259;49.972;19.850;2022-07-06T00:01:21;98630;;;17.4;100
51195;BME280;37259;49.972;19.850;2022-07-06T00:02:21;98630;;;17.4;100
51195;BME280;37259;49.972;19.850;2022-07-06T00:03:20;98630;;;17.4;100
51195;BME280;37259;49.972;19.850;2022-07-06T00:04:21;98630;;;17.3;100
51195;BME280;37259;49.972;19.850;2022-07-06T00:05:21;98630;;;17.3;100
51195;BME280;37259;49.972;19.850;2022-07-06T00:06:21;98630;;;17.3;100
51195;BME280;37259;49.972;19.850;2022-07-06T00:07:21;98630;;;17.3;100
51195;BME280;37259;49.972;19.850;2022-07-06T00:08:20;98630;;;17.3;100
51195;BME280;37259;49.972;19.850;2022-07-06T00:09:20;98640;;;17.3;100
51195;BME280;37259;49.972;19.850;2022-07-06T00:10:20;98640;;;17.3;100
51195;BME280;37259;49.972;19.850;2022-07-06T00:11:21;98640;;;17.2;100
51195;BME280;37259;49.972;19.850;2022-07-06T00:12:21;98640;;;17.2;100
51195;BME280;37259;49.972;19.850;2022-07-06T00:13:20;98640;;;17.2;100
51195;BME280;37259;49.972;19.850;2022-07-06T00:14:21;98640;;;17.2;100
51195;BME280;37259;49.972;19.850;2022-07-06T00:15:21;98640;;;17.2;100
51195;BME280;37259;49.972;19.850;2022-07-06T00:16:20;98640;;;17.2;100
51195;BME280;37259;49.972;19.850;2022-07-06T00:17:20;98630;;;17.3;100
51195;BME280;37259;49.972;19.850;2022-07-06T00:18:21;98630;;;17.3;100
51195;BME280;37259;49.972;19.850;2022-07-06T00:19:20;98630;;;17.3;100
51195;BME280;37259;49.972;19.850;2022-07-06T00:20:20;98630;;;17.3;100
51195;BME280;37259;49.972;19.850;2022-07-06T00:21:21;98630;;;17.3;100
51195;BME280;37259;49.972;19.850;2022-07-06T00:22:20;98630;;;17.3;100
51195;BME280;37259;49.972;19.850;2022-07-06T00:23:20;98630;;;17.4;100
51195;BME280;37259;49.972;19.850;2022-07-06T00:24:21;98630;;;17.4;100
51195;BME280;37259;49.972;19.850;2022-07-06T00:25:21;98630;;;17.4;100
51195;BME280;37259;49.972;19.850;2022-07-06T00:26:21;98630;;;17.4;100
51195;BME280;37259;49.972;19.850;2022-07-06T00:27:21;98630;;;17.4;100
51195;BME280;37259;49.972;19.850;2022-07-06T00:28:21;98630;;;17.4;100
51195;BME280;37259;49.972;19.850;2022-07-06T00:29:21;98630;;;17.4;100
51195;BME280;37259;49.972;19.850;2022-07-06T00:30:20;98630;;;17.4;100
51195;BME280;37259;49.972;19.850;2022-07-06T00:31:20;98630;;;17.4;100
51195;BME280;37259;49.972;19.850;2022-07-06T00:32:21;98630;;;17.4;100
51195;BME280;37259;49.972;19.850;2022-07-06T00:33:21;98620;;;17.4;100
51195;BME280;37259;49.972;19.850;2022-07-06T00:34:20;98620;;;17.4;100
51195;BME280;37259;49.972;19.850;2022-07-06T00:35:21;98620;;;17.4;100
51195;BME280;37259;49.972;19.850;2022-07-06T00:36:21;98620;;;17.3;100
51195;BME280;37259;49.972;19.850;2022-07-06T00:37:20;98620;;;17.3;100
51195;BME280;37259;49.972;19.850;2022-07-06T00:38:21;98620;;;17.3;100
51195;BME280;37259;49.972;19.850;2022-07-06T00:39:20;98620;;;17.3;100
51195;BME280;37259;49.972;19.850;2022-07-06T00:40:21;98620;;;17.3;100
51195;BME280;37259;49.972;19.850;2022-07-06T00:41:21;98620;;;17.3;100
51195;BME280;37259;49.972;19.850;2022-07-06T00:42:20;98620;;;17.3;100
51195;BME280;37259;49.972;19.850;2022-07-06T00:43:21;98630;;;17.2;100
51195;BME280;37259;49.972;19.850;2022-07-06T00:44:20;98630;;;17.2;100
51195;BME280;37259;49.972;19.850;2022-07-06T00:45:21;98630;;;17.2;100
51195;BME280;37259;49.972;19.850;2022-07-06T00:46:22;98630;;;17.2;100
51195;BME280;37259;49.972;19.850;2022-07-06T00:47:20;98630;;;17.2;100
51195;BME280;37259;49.972;19.850;2022-07-06T00:48:21;98630;;;17.2;100
51195;BME280;37259;49.972;19.850;2022-07-06T00:49:21;98630;;;17.2;100
51195;BME280;37259;49.972;19.850;2022-07-06T00:50:21;98630;;;17.2;100
51195;BME280;37259;49.972;19.850;2022-07-06T00:51:22;98630;;;17.2;100
51195;BME280;37259;49.972;19.850;2022-07-06T00:52:20;98630;;;17.2;100
51195;BME280;37259;49.972;19.850;2022-07-06T00:53:20;98630;;;17.1;100
51195;BME280;37259;49.972;19.850;2022-07-06T00:54:21;98630;;;17.1;100
51195;BME280;37259;49.972;19.850;2022-07-06T00:55:21;98630;;;17.1;100
51195;BME280;37259;49.972;19.850;2022-07-06T00:56:21;98630;;;17.1;100
51195;BME280;37259;49.972;19.850;2022-07-06T00:57:20;98630;;;17.1;100
51195;BME280;37259;49.972;19.850;2022-07-06T00:58:21;98630;;;17.1;100
51195;BME280;37259;49.972;19.850;2022-07-06T00:59:20;98630;;;17.1;100
51195;BME280;37259;49.972;19.850;2022-07-06T01:00:22;98630;;;17.1;100
51195;BME280;37259;49.972;19.850;2022-07-06T01:01:20;98630;;;17.1;100
51195;BME280;37259;49.972;19.850;2022-07-06T01:02:20;98640;;;17.1;100
51195;BME280;37259;49.972;19.850;2022-07-06T01:03:20;98640;;;17.1;100
51195;BME280;37259;49.972;19.850;2022-07-06T01:04:21;98640;;;17.1;100
51195;BME280;37259;49.972;19.850;2022-07-06T01:05:21;98630;;;17.1;100
51195;BME280;37259;49.972;19.850;2022-07-06T01:06:21;98630;;;17.1;100
51195;BME280;37259;49.972;19.850;2022-07-06T01:07:21;98630;;;17.1;100
51195;BME280;37259;49.972;19.850;2022-07-06T01:08:21;98630;;;17.1;100
51195;BME280;37259;49.972;19.850;2022-07-06T01:09:21;98630;;;17.1;100
51195;BME280;37259;49.972;19.850;2022-07-06T01:10:21;98630;;;17.1;100
51195;BME280;37259;49.972;19.850;2022-07-06T01:11:21;98630;;;17.1;100
51195;BME280;37259;49.972;19.850;2022-07-06T01:12:21;98630;;;17.1;100
51195;BME280;37259;49.972;19.850;2022-07-06T01:13:21;98630;;;17.1;100
51195;BME280;37259;49.972;19.850;2022-07-06T01:14:21;98630;;;17.1;100
51195;BME280;37259;49.972;19.850;2022-07-06T01:15:21;98630;;;17.1;100
51195;BME280;37259;49.972;19.850;2022-07-06T01:16:21;98630;;;17.1;100
51195;BME280;37259;49.972;19.850;2022-07-06T01:17:20;98630;;;17.1;100
51195;BME280;37259;49.972;19.850;2022-07-06T01:18:21;98630;;;17.1;100
51195;BME280;37259;49.972;19.850;2022-07-06T01:19:21;98630;;;17.1;100
51195;BME280;37259;49.972;19.850;2022-07-06T01:20:21;98630;;;17.1;100
51195;BME280;37259;49.972;19.850;2022-07-06T01:21:21;98630;;;17.1;100
51195;BME280;37259;49.972;19.850;2022-07-06T01:22:21;98630;;;17.1;100
51195;BME280;37259;49.972;19.850;2022-07-06T01:23:21;98630;;;17.2;100
51195;BME280;37259;49.972;19.850;2022-07-06T01:24:21;98630;;;17.2;100
51195;BME280;37259;49.972;19.850;2022-07-06T01:25:21;98630;;;17.2;100
51195;BME280;37259;49.972;19.850;2022-07-06T01:26:21;98640;;;17.1;100
51195;BME280;37259;49.972;19.850;2022-07-06T01:27:21;98640;;;17.1;100
51195;BME280;37259;49.972;19.850;2022-07-06T01:28:21;98640;;;17.2;100
51195;BME280;37259;49.972;19.850;2022-07-06T01:29:21;98640;;;17.2;100
51195;BME280;37259;49.972;19.850;2022-07-06T01:30:21;98640;;;17.2;100
51195;BME280;37259;49.972;19.850;2022-07-06T01:31:21;98640;;;17.3;100
51195;BME280;37259;49.972;19.850;2022-07-06T01:32:21;98640;;;17.3;100
51195;BME280;37259;49.972;19.850;2022-07-06T01:33:21;98640;;;17.3;100
51195;BME280;37259;49.972;19.850;2022-07-06T01:34:21;98640;;;17.1;100
51195;BME280;37259;49.972;19.850;2022-07-06T01:35:21;98640;;;17.1;100
51195;BME280;37259;49.972;19.850;2022-07-06T01:36:21;98640;;;17.1;100
51195;BME280;37259;49.972;19.850;2022-07-06T01:37:20;98640;;;17.1;100
51195;BME280;37259;49.972;19.850;2022-07-06T01:38:21;98640;;;17.1;100
51195;BME280;37259;49.972;19.850;2022-07-06T01:39:21;98640;;;17.2;100
51195;BME280;37259;49.972;19.850;2022-07-06T01:40:21;98640;;;17.2;100
51195;BME280;37259;49.972;19.850;2022-07-06T01:41:21;98640;;;17.2;100
51195;BME280;37259;49.972;19.850;2022-07-06T01:42:20;98630;;;17.2;100
51195;BME280;37259;49.972;19.850;2022-07-06T01:43:21;98630;;;17.2;100
51195;BME280;37259;49.972;19.850;2022-07-06T01:44:21;98640;;;17.2;100
51195;BME280;37259;49.972;19.850;2022-07-06T01:45:20;98640;;;17.2;100
51195;BME280;37259;49.972;19.850;2022-07-06T01:46:21;98640;;;17.2;100
51195;BME280;37259;49.972;19.850;2022-07-06T01:47:21;98640;;;17.1;100
51195;BME280;37259;49.972;19.850;2022-07-06T01:48:21;98640;;;17.1;100
51195;BME280;37259;49.972;19.850;2022-07-06T01:49:21;98640;;;17.1;100
51195;BME280;37259;49.972;19.850;2022-07-06T01:50:21;98640;;;17.1;100
51195;BME280;37259;49.972;19.850;2022-07-06T01:51:21;98640;;;17.1;100
51195;BME280;37259;49.972;19.850;2022-07-06T01:52:21;98640;;;17.1;100
51195;BME280;37259;49.972;19.850;2022-07-06T01:53:21;98650;;;17;100
51195;BME280;37259;49.972;19.850;2022-07-06T01:54:21;98650;;;17;100
51195;BME280;37259;49.972;19.850;2022-07-06T01:55:21;98650;;;17;100
51195;BME280;37259;49.972;19.850;2022-07-06T01:56:21;98650;;;17;100
51195;BME280;37259;49.972;19.850;2022-07-06T01:57:21;98650;;;17;100
51195;BME280;37259;49.972;19.850;2022-07-06T01:58:21;98650;;;17;100
51195;BME280;37259;49.972;19.850;2022-07-06T01:59:21;98650;;;17;100
51195;BME280;37259;49.972;19.850;2022-07-06T02:00:21;98650;;;17;100
51195;BME280;37259;49.972;19.850;2022-07-06T02:01:21;98650;;;17;100
51195;BME280;37259;49.972;19.850;2022-07-06T02:02:20;98650;;;17;100
51195;BME280;37259;49.972;19.850;2022-07-06T02:03:21;98650;;;17;100
51195;BME280;37259;49.972;19.850;2022-07-06T02:04:21;98650;;;17;100
51195;BME280;37259;49.972;19.850;2022-07-06T02:05:21;98650;;;17;100
51195;BME280;37259;49.972;19.850;2022-07-06T02:06:20;98640;;;17;100
51195;BME280;37259;49.972;19.850;2022-07-06T02:07:21;98640;;;17;100
51195;BME280;37259;49.972;19.850;2022-07-06T02:08:20;98640;;;17;100
51195;BME280;37259;49.972;19.850;2022-07-06T02:09:20;98640;;;17;100
51195;BME280;37259;49.972;19.850;2022-07-06T02:10:21;98640;;;17;100
51195;BME280;37259;49.972;19.850;2022-07-06T02:11:21;98640;;;17;100
51195;BME280;37259;49.972;19.850;2022-07-06T02:12:21;98640;;;17;100
51195;BME280;37259;49.972;19.850;2022-07-06T02:13:21;98640;;;17;100
51195;BME280;37259;49.972;19.850;2022-07-06T02:14:21;98630;;;17;100
51195;BME280;37259;49.972;19.850;2022-07-06T02:15:21;98630;;;17;100
51195;BME280;37259;49.972;19.850;2022-07-06T02:16:21;98640;;;17;100
51195;BME280;37259;49.972;19.850;2022-07-06T02:17:21;98630;;;17;100
51195;BME280;37259;49.972;19.850;2022-07-06T02:18:20;98630;;;17;100
51195;BME280;37259;49.972;19.850;2022-07-06T02:19:21;98630;;;17;100
51195;BME280;37259;49.972;19.850;2022-07-06T02:20:21;98640;;;17;100
51195;BME280;37259;49.972;19.850;2022-07-06T02:21:21;98640;;;17;100
51195;BME280;37259;49.972;19.850;2022-07-06T02:22:21;98630;;;16.9;100
51195;BME280;37259;49.972;19.850;2022-07-06T02:23:21;98630;;;16.9;100
51195;BME280;37259;49.972;19.850;2022-07-06T02:24:20;98640;;;16.9;100
51195;BME280;37259;49.972;19.850;2022-07-06T02:25:21;98630;;;16.9;100
51195;BME280;37259;49.972;19.850;2022-07-06T02:26:20;98630;;;16.9;100
51195;BME280;37259;49.972;19.850;2022-07-06T02:27:20;98630;;;16.9;100
51195;BME280;37259;49.972;19.850;2022-07-06T02:28:21;98630;;;17;100
51195;BME280;37259;49.972;19.850;2022-07-06T02:29:21;98630;;;16.9;100
51195;BME280;37259;49.972;19.850;2022-07-06T02:30:21;98630;;;16.9;100
51195;BME280;37259;49.972;19.850;2022-07-06T02:31:20;98640;;;17;100
51195;BME280;37259;49.972;19.850;2022-07-06T02:32:20;98630;;;16.9;100
51195;BME280;37259;49.972;19.850;2022-07-06T02:33:21;98640;;;16.9;100
51195;BME280;37259;49.972;19.850;2022-07-06T02:34:21;98640;;;16.9;100
51195;BME280;37259;49.972;19.850;2022-07-06T02:35:21;98630;;;16.9;100
51195;BME280;37259;49.972;19.850;2022-07-06T02:36:21;98630;;;16.9;100
51195;BME280;37259;49.972;19.850;2022-07-06T02:37:21;98630;;;16.9;100
51195;BME280;37259;49.972;19.850;2022-07-06T02:38:21;98630;;;16.9;100
51195;BME280;37259;49.972;19.850;2022-07-06T02:39:21;98630;;;16.9;100
51195;BME280;37259;49.972;19.850;2022-07-06T02:40:21;98640;;;16.9;100
51195;BME280;37259;49.972;19.850;2022-07-06T02:41:21;98640;;;16.9;100
51195;BME280;37259;49.972;19.850;2022-07-06T02:42:20;98640;;;16.9;100
51195;BME280;37259;49.972;19.850;2022-07-06T02:43:21;98640;;;16.9;100
51195;BME280;37259;49.972;19.850;2022-07-06T02:44:21;98630;;;16.9;100
51195;BME280;37259;49.972;19.850;2022-07-06T02:45:20;98630;;;16.9;100
51195;BME280;37259;49.972;19.850;2022-07-06T02:46:20;98640;;;16.9;100
51195;BME280;37259;49.972;19.850;2022-07-06T02:47:20;98640;;;16.9;100
51195;BME280;37259;49.972;19.850;2022-07-06T02:48:21;98640;;;16.9;100
51195;BME280;37259;49.972;19.850;2022-07-06T02:49:21;98640;;;16.9;100
51195;BME280;37259;49.972;19.850;2022-07-06T02:50:20;98640;;;16.9;100
51195;BME280;37259;49.972;19.850;2022-07-06T02:51:21;98640;;;16.9;100
51195;BME280;37259;49.972;19.850;2022-07-06T02:52:20;98640;;;16.9;100
51195;BME280;37259;49.972;19.850;2022-07-06T02:53:20;98640;;;16.9;100
51195;BME280;37259;49.972;19.850;2022-07-06T02:54:21;98640;;;17;100
51195;BME280;37259;49.972;19.850;2022-07-06T02:55:21;98640;;;17;100
51195;BME280;37259;49.972;19.850;2022-07-06T02:56:21;98640;;;17;100
51195;BME280;37259;49.972;19.850;2022-07-06T02:57:21;98640;;;17;100
51195;BME280;37259;49.972;19.850;2022-07-06T02:58:21;98650;;;17;100
51195;BME280;37259;49.972;19.850;2022-07-06T02:59:21;98650;;;17;100
51195;BME280;37259;49.972;19.850;2022-07-06T03:00:21;98650;;;17;100
51195;BME280;37259;49.972;19.850;2022-07-06T03:01:21;98650;;;17;100
51195;BME280;37259;49.972;19.850;2022-07-06T03:02:21;98650;;;17;100
51195;BME280;37259;49.972;19.850;2022-07-06T03:03:21;98650;;;17;100
51195;BME280;37259;49.972;19.850;2022-07-06T03:04:20;98650;;;17;100
51195;BME280;37259;49.972;19.850;2022-07-06T03:05:21;98650;;;17;100
51195;BME280;37259;49.972;19.850;2022-07-06T03:06:21;98640;;;16.9;100
51195;BME280;37259;49.972;19.850;2022-07-06T03:07:20;98640;;;16.9;100
51195;BME280;37259;49.972;19.850;2022-07-06T03:08:21;98650;;;17;100
51195;BME280;37259;49.972;19.850;2022-07-06T03:09:21;98650;;;17;100
51195;BME280;37259;49.972;19.850;2022-07-06T03:10:21;98650;;;17;100
51195;BME280;37259;49.972;19.850;2022-07-06T03:11:21;98650;;;17;100
51195;BME280;37259;49.972;19.850;2022-07-06T03:12:21;98650;;;17;100
51195;BME280;37259;49.972;19.850;2022-07-06T03:13:21;98650;;;17;100
51195;BME280;37259;49.972;19.850;2022-07-06T03:14:21;98650;;;17.1;100
51195;BME280;37259;49.972;19.850;2022-07-06T03:15:21;98650;;;17.1;100
51195;BME280;37259;49.972;19.850;2022-07-06T03:16:21;98650;;;17.1;100
51195;BME280;37259;49.972;19.850;2022-07-06T03:17:21;98650;;;17.1;100
51195;BME280;37259;49.972;19.850;2022-07-06T03:18:21;98650;;;17.1;100
51195;BME280;37259;49.972;19.850;2022-07-06T03:19:21;98660;;;17.1;100
51195;BME280;37259;49.972;19.850;2022-07-06T03:20:21;98660;;;17.1;100
51195;BME280;37259;49.972;19.850;2022-07-06T03:21:21;98660;;;17.1;100
51195;BME280;37259;49.972;19.850;2022-07-06T03:22:21;98660;;;17.1;100
51195;BME280;37259;49.972;19.850;2022-07-06T03:23:21;98660;;;17;100
51195;BME280;37259;49.972;19.850;2022-07-06T03:24:21;98660;;;17;100
51195;BME280;37259;49.972;19.850;2022-07-06T03:25:21;98670;;;17.1;100
51195;BME280;37259;49.972;19.850;2022-07-06T03:26:21;98670;;;17;100
51195;BME280;37259;49.972;19.850;2022-07-06T03:27:21;98670;;;17;100
51195;BME280;37259;49.972;19.850;2022-07-06T03:28:21;98670;;;17.1;100
51195;BME280;37259;49.972;19.850;2022-07-06T03:29:21;98670;;;17;100
51195;BME280;37259;49.972;19.850;2022-07-06T03:30:21;98670;;;17;100
51195;BME280;37259;49.972;19.850;2022-07-06T03:31:21;98680;;;17.1;100
51195;BME280;37259;49.972;19.850;2022-07-06T03:32:21;98680;;;17.1;100
51195;BME280;37259;49.972;19.850;2022-07-06T03:33:21;98670;;;17.1;100
51195;BME280;37259;49.972;19.850;2022-07-06T03:34:21;98670;;;17.1;100
51195;BME280;37259;49.972;19.850;2022-07-06T03:35:21;98680;;;17.1;100
51195;BME280;37259;49.972;19.850;2022-07-06T03:36:21;98670;;;17.1;100
51195;BME280;37259;49.972;19.850;2022-07-06T03:37:21;98670;;;17.1;100
51195;BME280;37259;49.972;19.850;2022-07-06T03:38:21;98680;;;17.1;100
51195;BME280;37259;49.972;19.850;2022-07-06T03:39:21;98680;;;17.1;100
51195;BME280;37259;49.972;19.850;2022-07-06T03:40:21;98690;;;17.1;100
51195;BME280;37259;49.972;19.850;2022-07-06T03:41:21;98690;;;17.1;100
51195;BME280;37259;49.972;19.850;2022-07-06T03:42:21;98690;;;17.2;100
51195;BME280;37259;49.972;19.850;2022-07-06T03:43:21;98680;;;17.1;100
51195;BME280;37259;49.972;19.850;2022-07-06T03:44:21;98680;;;17.1;100
51195;BME280;37259;49.972;19.850;2022-07-06T03:45:21;98690;;;17.2;100
51195;BME280;37259;49.972;19.850;2022-07-06T03:46:21;98690;;;17.2;100
51195;BME280;37259;49.972;19.850;2022-07-06T03:47:21;98690;;;17.2;100
51195;BME280;37259;49.972;19.850;2022-07-06T03:48:21;98680;;;17.2;100
51195;BME280;37259;49.972;19.850;2022-07-06T03:49:21;98680;;;17.2;100
51195;BME280;37259;49.972;19.850;2022-07-06T03:50:21;98680;;;17.2;100
51195;BME280;37259;49.972;19.850;2022-07-06T03:51:21;98680;;;17.2;100
51195;BME280;37259;49.972;19.850;2022-07-06T03:52:21;98670;;;17.2;100
51195;BME280;37259;49.972;19.850;2022-07-06T03:53:21;98670;;;17.2;100
51195;BME280;37259;49.972;19.850;2022-07-06T03:54:21;98670;;;17.2;100
51195;BME280;37259;49.972;19.850;2022-07-06T03:55:21;98670;;;17.2;100
51195;BME280;37259;49.972;19.850;2022-07-06T03:56:21;98670;;;17.2;100
51195;BME280;37259;49.972;19.850;2022-07-06T03:57:21;98670;;;17.2;100
51195;BME280;37259;49.972;19.850;2022-07-06T03:58:21;98670;;;17.2;100
51195;BME280;37259;49.972;19.850;2022-07-06T03:59:21;98670;;;17.1;100
51195;BME280;37259;49.972;19.850;2022-07-06T04:00:21;98680;;;17.1;100
51195;BME280;37259;49.972;19.850;2022-07-06T04:01:21;98680;;;17.1;100
51195;BME280;37259;49.972;19.850;2022-07-06T04:02:21;98680;;;17.2;100
51195;BME280;37259;49.972;19.850;2022-07-06T04:03:21;98680;;;17.2;100
51195;BME280;37259;49.972;19.850;2022-07-06T04:04:21;98680;;;17.2;100
51195;BME280;37259;49.972;19.850;2022-07-06T04:05:21;98680;;;17.2;100
51195;BME280;37259;49.972;19.850;2022-07-06T04:06:21;98680;;;17.2;100
51195;BME280;37259;49.972;19.850;2022-07-06T04:07:21;98690;;;17.2;100
51195;BME280;37259;49.972;19.850;2022-07-06T04:08:21;98680;;;17.2;100
51195;BME280;37259;49.972;19.850;2022-07-06T04:09:21;98680;;;17.2;100
51195;BME280;37259;49.972;19.850;2022-07-06T04:10:21;98680;;;17.1;100
51195;BME280;37259;49.972;19.850;2022-07-06T04:11:21;98680;;;17.1;100
51195;BME280;37259;49.972;19.850;2022-07-06T04:12:21;98680;;;17.1;100
51195;BME280;37259;49.972;19.850;2022-07-06T04:13:21;98680;;;17.1;100
51195;BME280;37259;49.972;19.850;2022-07-06T04:14:21;98680;;;17.1;100
51195;BME280;37259;49.972;19.850;2022-07-06T04:15:21;98680;;;17.1;100
51195;BME280;37259;49.972;19.850;2022-07-06T04:16:21;98670;;;17.2;100
51195;BME280;37259;49.972;19.850;2022-07-06T04:17:21;98680;;;17.2;100
51195;BME280;37259;49.972;19.850;2022-07-06T04:18:21;98680;;;17.2;100
51195;BME280;37259;49.972;19.850;2022-07-06T04:19:21;98670;;;17.3;100
51195;BME280;37259;49.972;19.850;2022-07-06T04:20:21;98680;;;17.3;100
51195;BME280;37259;49.972;19.850;2022-07-06T04:21:21;98680;;;17.3;100
51195;BME280;37259;49.972;19.850;2022-07-06T04:22:21;98680;;;17.4;100
51195;BME280;37259;49.972;19.850;2022-07-06T04:23:21;98680;;;17.4;100
51195;BME280;37259;49.972;19.850;2022-07-06T04:24:21;98690;;;17.3;100
51195;BME280;37259;49.972;19.850;2022-07-06T04:25:21;98690;;;17.3;100
51195;BME280;37259;49.972;19.850;2022-07-06T04:26:21;98690;;;17.3;100
51195;BME280;37259;49.972;19.850;2022-07-06T04:27:21;98690;;;17.3;100
51195;BME280;37259;49.972;19.850;2022-07-06T04:28:21;98690;;;17.3;100
51195;BME280;37259;49.972;19.850;2022-07-06T04:29:21;98690;;;17.3;100
51195;BME280;37259;49.972;19.850;2022-07-06T04:30:21;98700;;;17.3;100
51195;BME280;37259;49.972;19.850;2022-07-06T04:31:21;98700;;;17.3;100
51195;BME280;37259;49.972;19.850;2022-07-06T04:32:21;98700;;;17.3;100
51195;BME280;37259;49.972;19.850;2022-07-06T04:33:21;98700;;;17.3;100
51195;BME280;37259;49.972;19.850;2022-07-06T04:34:21;98700;;;17.4;100
51195;BME280;37259;49.972;19.850;2022-07-06T04:35:21;98700;;;17.3;100
51195;BME280;37259;49.972;19.850;2022-07-06T04:36:21;98700;;;17.4;100
51195;BME280;37259;49.972;19.850;2022-07-06T04:37:21;98700;;;17.4;100
51195;BME280;37259;49.972;19.850;2022-07-06T04:38:21;98700;;;17.4;100
51195;BME280;37259;49.972;19.850;2022-07-06T04:39:21;98700;;;17.4;100
51195;BME280;37259;49.972;19.850;2022-07-06T04:40:21;98700;;;17.4;100
51195;BME280;37259;49.972;19.850;2022-07-06T04:41:21;98700;;;17.5;100
51195;BME280;37259;49.972;19.850;2022-07-06T04:42:21;98700;;;17.5;100
51195;BME280;37259;49.972;19.850;2022-07-06T04:43:21;98700;;;17.6;100
51195;BME280;37259;49.972;19.850;2022-07-06T04:44:21;98700;;;17.7;100
51195;BME280;37259;49.972;19.850;2022-07-06T04:45:21;98700;;;17.7;100
51195;BME280;37259;49.972;19.850;2022-07-06T04:46:21;98710;;;17.8;100
51195;BME280;37259;49.972;19.850;2022-07-06T04:47:21;98710;;;17.8;100
51195;BME280;37259;49.972;19.850;2022-07-06T04:48:21;98710;;;17.8;100
51195;BME280;37259;49.972;19.850;2022-07-06T04:49:21;98710;;;17.9;100
51195;BME280;37259;49.972;19.850;2022-07-06T04:50:21;98710;;;17.9;100
51195;BME280;37259;49.972;19.850;2022-07-06T04:51:21;98720;;;17.6;100
51195;BME280;37259;49.972;19.850;2022-07-06T04:52:21;98720;;;17.7;100
51195;BME280;37259;49.972;19.850;2022-07-06T04:53:21;98730;;;17.5;100
51195;BME280;37259;49.972;19.850;2022-07-06T04:54:21;98720;;;17.6;100
51195;BME280;37259;49.972;19.850;2022-07-06T04:55:21;98720;;;17.6;100
51195;BME280;37259;49.972;19.850;2022-07-06T04:56:21;98720;;;17.7;100
51195;BME280;37259;49.972;19.850;2022-07-06T04:57:21;98720;;;17.7;100
51195;BME280;37259;49.972;19.850;2022-07-06T04:58:21;98730;;;17.8;100
51195;BME280;37259;49.972;19.850;2022-07-06T04:59:21;98730;;;17.8;100
51195;BME280;37259;49.972;19.850;2022-07-06T05:00:21;98730;;;18;100
51195;BME280;37259;49.972;19.850;2022-07-06T05:01:21;98730;;;18;100
51195;BME280;37259;49.972;19.850;2022-07-06T05:02:21;98730;;;18;100
51195;BME280;37259;49.972;19.850;2022-07-06T05:03:21;98730;;;18.1;100
51195;BME280;37259;49.972;19.850;2022-07-06T05:04:21;98730;;;18.1;100
51195;BME280;37259;49.972;19.850;2022-07-06T05:05:21;98730;;;18;100
51195;BME280;37259;49.972;19.850;2022-07-06T05:06:21;98730;;;18.1;100
51195;BME280;37259;49.972;19.850;2022-07-06T05:07:21;98730;;;18.1;100
51195;BME280;37259;49.972;19.850;2022-07-06T05:08:21;98730;;;18.2;100
51195;BME280;37259;49.972;19.850;2022-07-06T05:09:21;98730;;;18.2;100
51195;BME280;37259;49.972;19.850;2022-07-06T05:10:21;98740;;;18.3;100
51195;BME280;37259;49.972;19.850;2022-07-06T05:11:21;98740;;;18.3;100
51195;BME280;37259;49.972;19.850;2022-07-06T05:13:21;98740;;;18.4;100
51195;BME280;37259;49.972;19.850;2022-07-06T05:14:22;98740;;;18.4;100
51195;BME280;37259;49.972;19.850;2022-07-06T05:15:21;98740;;;18.4;100
51195;BME280;37259;49.972;19.850;2022-07-06T05:16:21;98750;;;18.4;100
51195;BME280;37259;49.972;19.850;2022-07-06T05:17:21;98750;;;18.4;100
51195;BME280;37259;49.972;19.850;2022-07-06T05:18:21;98740;;;18;100
51195;BME280;37259;49.972;19.850;2022-07-06T05:19:21;98740;;;18.1;100
51195;BME280;37259;49.972;19.850;2022-07-06T05:20:21;98740;;;18.1;100
51195;BME280;37259;49.972;19.850;2022-07-06T05:21:21;98740;;;18;100
51195;BME280;37259;49.972;19.850;2022-07-06T05:22:21;98750;;;18.1;100
51195;BME280;37259;49.972;19.850;2022-07-06T05:23:21;98750;;;18.1;100
51195;BME280;37259;49.972;19.850;2022-07-06T05:24:21;98750;;;18.5;100
51195;BME280;37259;49.972;19.850;2022-07-06T05:25:21;98750;;;18.5;100
51195;BME280;37259;49.972;19.850;2022-07-06T05:26:21;98750;;;18.9;100
51195;BME280;37259;49.972;19.850;2022-07-06T05:27:21;98750;;;18.9;100
51195;BME280;37259;49.972;19.850;2022-07-06T05:29:21;98760;;;19.1;100
51195;BME280;37259;49.972;19.850;2022-07-06T05:30:21;98760;;;19.3;100
51195;BME280;37259;49.972;19.850;2022-07-06T05:31:21;98760;;;19.4;100
51195;BME280;37259;49.972;19.850;2022-07-06T05:32:21;98760;;;19.4;100
51195;BME280;37259;49.972;19.850;2022-07-06T05:33:21;98760;;;19.3;100
51195;BME280;37259;49.972;19.850;2022-07-06T05:34:21;98750;;;19.1;100
51195;BME280;37259;49.972;19.850;2022-07-06T05:35:21;98750;;;19.1;100
51195;BME280;37259;49.972;19.850;2022-07-06T05:36:21;98750;;;19.1;100
51195;BME280;37259;49.972;19.850;2022-07-06T05:37:21;98750;;;19.1;100
51195;BME280;37259;49.972;19.850;2022-07-06T05:38:21;98750;;;19;100
51195;BME280;37259;49.972;19.850;2022-07-06T05:39:21;98750;;;19;100
51195;BME280;37259;49.972;19.850;2022-07-06T05:40:21;98750;;;19.2;100
51195;BME280;37259;49.972;19.850;2022-07-06T05:41:21;98750;;;19.2;100
51195;BME280;37259;49.972;19.850;2022-07-06T05:42:21;98760;;;19.2;100
51195;BME280;37259;49.972;19.850;2022-07-06T05:43:21;98760;;;19.2;100
51195;BME280;37259;49.972;19.850;2022-07-06T05:44:21;98750;;;19.2;100